sensor_id;sensor_type;location;lat;lon;timestamp;pressure;altitude;pressure_sealevel;temperature
64916;BMP280;51427;-27.442;153.014;2023-02-05T02:41:03;101157.47;;;30.68
64916;BMP280;51427;-27.442;153.014;2023-02-05T02:43:53;101153.50;;;30.51
64916;BMP280;51427;-27.442;153.014;2023-02-05T02:46:32;101152.00;;;31.60
64916;BMP280;51427;-27.442;153.014;2023-02-05T02:49:05;101148.34;;;31.82
64916;BMP280;51427;-27.442;153.014;2023-02-05T02:51:34;101145.88;;;31.20
64916;BMP280;51427;-27.442;153.014;2023-02-05T02:54:08;101148.34;;;31.28
64916;BMP280;51427;-27.442;153.014;2023-02-05T02:56:38;101146.09;;;30.62
64916;BMP280;51427;-27.442;153.014;2023-02-05T02:59:14;101149.66;;;30.97
64916;BMP280;51427;-27.442;153.014;2023-02-05T03:01:48;101139.63;;;30.52
64916;BMP280;51427;-27.442;153.014;2023-02-05T03:04:22;101151.44;;;30.61
64916;BMP280;51427;-27.442;153.014;2023-02-05T03:06:52;101147.06;;;30.61
64916;BMP280;51427;-27.442;153.014;2023-02-05T03:09:41;101153.97;;;30.26
64916;BMP280;51427;-27.442;153.014;2023-02-05T03:12:09;101148.72;;;30.48
64916;BMP280;51427;-27.442;153.014;2023-02-05T03:14:37;101145.38;;;30.68
64916;BMP280;51427;-27.442;153.014;2023-02-05T03:17:04;101138.47;;;30.75
64916;BMP280;51427;-27.442;153.014;2023-02-05T03:19:32;101129.94;;;30.40
64916;BMP280;51427;-27.442;153.014;2023-02-05T03:22:03;101130.56;;;30.42
64916;BMP280;51427;-27.442;153.014;2023-02-05T03:24:31;101141.97;;;30.18
64916;BMP280;51427;-27.442;153.014;2023-02-05T03:26:58;101136.25;;;30.23
64916;BMP280;51427;-27.442;153.014;2023-02-05T03:29:29;101144.56;;;30.68
64916;BMP280;51427;-27.442;153.014;2023-02-05T03:32:22;101120.59;;;30.95
64916;BMP280;51427;-27.442;153.014;2023-02-05T03:38:00;101124.59;;;30.62
64916;BMP280;51427;-27.442;153.014;2023-02-05T03:43:41;101101.56;;;31.02
64916;BMP280;51427;-27.442;153.014;2023-02-05T03:46:40;101117.47;;;30.43
64916;BMP280;51427;-27.442;153.014;2023-02-05T03:49:20;101118.53;;;30.49
64916;BMP280;51427;-27.442;153.014;2023-02-05T03:51:55;101119.63;;;30.25
64916;BMP280;51427;-27.442;153.014;2023-02-05T03:54:56;101105.91;;;30.60
64916;BMP280;51427;-27.442;153.014;2023-02-05T03:57:41;101114.81;;;30.37
64916;BMP280;51427;-27.442;153.014;2023-02-05T04:00:11;101113.19;;;31.12
64916;BMP280;51427;-27.442;153.014;2023-02-05T04:02:38;101103.91;;;31.45
64916;BMP280;51427;-27.442;153.014;2023-02-05T04:05:06;101097.59;;;31.48
64916;BMP280;51427;-27.442;153.014;2023-02-05T04:07:33;101106.72;;;30.81
64916;BMP280;51427;-27.442;153.014;2023-02-05T04:10:01;101109.31;;;31.02
64916;BMP280;51427;-27.442;153.014;2023-02-05T04:12:28;101109.44;;;31.15
64916;BMP280;51427;-27.442;153.014;2023-02-05T04:14:55;101093.63;;;31.04
64916;BMP280;51427;-27.442;153.014;2023-02-05T04:17:22;101107.78;;;31.08
64916;BMP280;51427;-27.442;153.014;2023-02-05T04:19:49;101112.16;;;30.16
64916;BMP280;51427;-27.442;153.014;2023-02-05T04:22:17;101111.44;;;30.57
64916;BMP280;51427;-27.442;153.014;2023-02-05T04:24:44;101122.16;;;31.16
64916;BMP280;51427;-27.442;153.014;2023-02-05T04:27:11;101096.28;;;31.37
64916;BMP280;51427;-27.442;153.014;2023-02-05T04:29:38;101105.84;;;30.54
64916;BMP280;51427;-27.442;153.014;2023-02-05T04:32:05;101110.41;;;30.52
64916;BMP280;51427;-27.442;153.014;2023-02-05T04:34:32;101114.81;;;30.37
64916;BMP280;51427;-27.442;153.014;2023-02-05T04:37:00;101112.28;;;30.58
64916;BMP280;51427;-27.442;153.014;2023-02-05T04:39:27;101105.19;;;30.45
64916;BMP280;51427;-27.442;153.014;2023-02-05T04:41:55;101105.66;;;30.06
64916;BMP280;51427;-27.442;153.014;2023-02-05T04:44:22;101109.59;;;30.51
64916;BMP280;51427;-27.442;153.014;2023-02-05T04:46:49;101090.81;;;30.99
64916;BMP280;51427;-27.442;153.014;2023-02-05T04:49:16;101097.59;;;30.85
64916;BMP280;51427;-27.442;153.014;2023-02-05T04:51:43;101105.84;;;30.54
64916;BMP280;51427;-27.442;153.014;2023-02-05T04:54:11;101109.91;;;30.27
64916;BMP280;51427;-27.442;153.014;2023-02-05T04:56:38;101105.44;;;30.50
64916;BMP280;51427;-27.442;153.014;2023-02-05T04:59:06;101114.50;;;30.46
64916;BMP280;51427;-27.442;153.014;2023-02-05T05:01:33;101096.72;;;30.72
64916;BMP280;51427;-27.442;153.014;2023-02-05T05:04:00;101094.00;;;29.95
64916;BMP280;51427;-27.442;153.014;2023-02-05T05:06:27;101085.19;;;30.54
64916;BMP280;51427;-27.442;153.014;2023-02-05T05:08:55;101085.31;;;30.66
64916;BMP280;51427;-27.442;153.014;2023-02-05T05:11:22;101087.28;;;30.44
64916;BMP280;51427;-27.442;153.014;2023-02-05T05:13:49;101083.81;;;31.20
64916;BMP280;51427;-27.442;153.014;2023-02-05T05:16:17;101087.44;;;30.98
64916;BMP280;51427;-27.442;153.014;2023-02-05T05:18:45;101083.03;;;30.36
64916;BMP280;51427;-27.442;153.014;2023-02-05T05:21:12;101067.78;;;31.04
64916;BMP280;51427;-27.442;153.014;2023-02-05T05:23:39;101090.59;;;30.38
64916;BMP280;51427;-27.442;153.014;2023-02-05T05:26:09;101078.66;;;30.37
64916;BMP280;51427;-27.442;153.014;2023-02-05T05:28:37;101074.69;;;30.06
64916;BMP280;51427;-27.442;153.014;2023-02-05T05:31:13;101089.38;;;30.05
64916;BMP280;51427;-27.442;153.014;2023-02-05T05:33:45;101084.63;;;30.37
64916;BMP280;51427;-27.442;153.014;2023-02-05T05:36:13;101084.38;;;30.18
64916;BMP280;51427;-27.442;153.014;2023-02-05T05:38:40;101080.34;;;29.80
64916;BMP280;51427;-27.442;153.014;2023-02-05T05:41:16;101095.81;;;29.80
64916;BMP280;51427;-27.442;153.014;2023-02-05T05:44:02;101088.16;;;29.58
64916;BMP280;51427;-27.442;153.014;2023-02-05T05:46:30;101098.91;;;29.47
64916;BMP280;51427;-27.442;153.014;2023-02-05T05:48:59;101089.38;;;30.05
64916;BMP280;51427;-27.442;153.014;2023-02-05T05:51:28;101095.06;;;29.58
64916;BMP280;51427;-27.442;153.014;2023-02-05T05:53:55;101091.00;;;29.49
64916;BMP280;51427;-27.442;153.014;2023-02-05T05:56:23;101094.56;;;30.05
64916;BMP280;51427;-27.442;153.014;2023-02-05T05:58:50;101089.69;;;30.31
64916;BMP280;51427;-27.442;153.014;2023-02-05T06:01:18;101102.72;;;30.09
64916;BMP280;51427;-27.442;153.014;2023-02-05T06:03:47;101103.56;;;29.80
64916;BMP280;51427;-27.442;153.014;2023-02-05T06:06:15;101113.03;;;29.66
64916;BMP280;51427;-27.442;153.014;2023-02-05T06:08:42;101103.69;;;29.14
64916;BMP280;51427;-27.442;153.014;2023-02-05T06:11:09;101113.28;;;29.56
64916;BMP280;51427;-27.442;153.014;2023-02-05T06:13:37;101114.47;;;29.54
64916;BMP280;51427;-27.442;153.014;2023-02-05T06:16:04;101131.47;;;29.04
64916;BMP280;51427;-27.442;153.014;2023-02-05T06:18:32;101138.25;;;29.27
64916;BMP280;51427;-27.442;153.014;2023-02-05T06:20:59;101113.38;;;29.34
64916;BMP280;51427;-27.442;153.014;2023-02-05T06:23:27;101128.47;;;29.23
64916;BMP280;51427;-27.442;153.014;2023-02-05T06:25:55;101133.69;;;29.07
64916;BMP280;51427;-27.442;153.014;2023-02-05T06:28:23;101136.28;;;28.84
64916;BMP280;51427;-27.442;153.014;2023-02-05T06:30:50;101128.16;;;28.95
64916;BMP280;51427;-27.442;153.014;2023-02-05T06:33:17;101132.69;;;28.93
64916;BMP280;51427;-27.442;153.014;2023-02-05T06:35:45;101145.28;;;28.88
64916;BMP280;51427;-27.442;153.014;2023-02-05T06:38:12;101144.13;;;28.61
64916;BMP280;51427;-27.442;153.014;2023-02-05T06:40:39;101141.19;;;28.72
64916;BMP280;51427;-27.442;153.014;2023-02-05T06:43:06;101147.63;;;28.98
64916;BMP280;51427;-27.442;153.014;2023-02-05T06:45:34;101173.38;;;28.75
64916;BMP280;51427;-27.442;153.014;2023-02-05T06:48:01;101153.19;;;28.87
64916;BMP280;51427;-27.442;153.014;2023-02-05T06:50:28;101157.63;;;28.71
64916;BMP280;51427;-27.442;153.014;2023-02-05T06:52:55;101162.91;;;28.39
64916;BMP280;51427;-27.442;153.014;2023-02-05T06:55:23;101160.53;;;28.68
64916;BMP280;51427;-27.442;153.014;2023-02-05T06:57:50;101164.56;;;28.70
64916;BMP280;51427;-27.442;153.014;2023-02-05T07:00:18;101155.53;;;28.96
64916;BMP280;51427;-27.442;153.014;2023-02-05T07:02:45;101167.34;;;28.53
64916;BMP280;51427;-27.442;153.014;2023-02-05T07:05:13;101169.31;;;28.51
64916;BMP280;51427;-27.442;153.014;2023-02-05T07:07:40;101174.31;;;28.82
64916;BMP280;51427;-27.442;153.014;2023-02-05T07:10:07;101171.31;;;28.71
64916;BMP280;51427;-27.442;153.014;2023-02-05T07:12:34;101183.00;;;28.43
64916;BMP280;51427;-27.442;153.014;2023-02-05T07:15:02;101183.22;;;28.34
64916;BMP280;51427;-27.442;153.014;2023-02-05T07:17:29;101190.47;;;28.23
64916;BMP280;51427;-27.442;153.014;2023-02-05T07:19:56;101187.72;;;28.32
64916;BMP280;51427;-27.442;153.014;2023-02-05T07:22:24;101193.91;;;27.91
64916;BMP280;51427;-27.442;153.014;2023-02-05T07:24:51;101199.03;;;27.99
64916;BMP280;51427;-27.442;153.014;2023-02-05T07:27:19;101196.81;;;27.88
64916;BMP280;51427;-27.442;153.014;2023-02-05T07:29:46;101205.50;;;27.87
64916;BMP280;51427;-27.442;153.014;2023-02-05T07:32:13;101200.84;;;27.91
64916;BMP280;51427;-27.442;153.014;2023-02-05T07:34:40;101207.59;;;27.92
64916;BMP280;51427;-27.442;153.014;2023-02-05T07:37:10;101210.19;;;27.84
64916;BMP280;51427;-27.442;153.014;2023-02-05T07:39:40;101202.78;;;27.89
64916;BMP280;51427;-27.442;153.014;2023-02-05T07:42:08;101219.03;;;27.74
64916;BMP280;51427;-27.442;153.014;2023-02-05T07:44:35;101215.47;;;27.75
64916;BMP280;51427;-27.442;153.014;2023-02-05T07:47:02;101238.81;;;27.73
64916;BMP280;51427;-27.442;153.014;2023-02-05T07:49:29;101231.75;;;27.67
64916;BMP280;51427;-27.442;153.014;2023-02-05T07:51:57;101236.72;;;27.77
64916;BMP280;51427;-27.442;153.014;2023-02-05T07:54:24;101236.72;;;27.61
64916;BMP280;51427;-27.442;153.014;2023-02-05T07:56:51;101241.69;;;27.70
64916;BMP280;51427;-27.442;153.014;2023-02-05T07:59:18;101258.88;;;27.54
64916;BMP280;51427;-27.442;153.014;2023-02-05T08:01:45;101254.53;;;27.54
64916;BMP280;51427;-27.442;153.014;2023-02-05T08:04:13;101260.50;;;27.55
64916;BMP280;51427;-27.442;153.014;2023-02-05T08:06:40;101271.22;;;27.42
64916;BMP280;51427;-27.442;153.014;2023-02-05T08:09:09;101269.91;;;27.38
64916;BMP280;51427;-27.442;153.014;2023-02-05T08:11:36;101276.50;;;27.33
64916;BMP280;51427;-27.442;153.014;2023-02-05T08:14:03;101277.16;;;27.27
64916;BMP280;51427;-27.442;153.014;2023-02-05T08:16:30;101285.50;;;27.29
64916;BMP280;51427;-27.442;153.014;2023-02-05T08:18:58;101288.69;;;27.31
64916;BMP280;51427;-27.442;153.014;2023-02-05T08:21:25;101286.78;;;27.25
64916;BMP280;51427;-27.442;153.014;2023-02-05T08:23:53;101290.78;;;27.28
64916;BMP280;51427;-27.442;153.014;2023-02-05T08:26:22;101295.28;;;27.26
64916;BMP280;51427;-27.442;153.014;2023-02-05T08:28:50;101298.94;;;27.15
64916;BMP280;51427;-27.442;153.014;2023-02-05T08:31:18;101300.56;;;27.16
64916;BMP280;51427;-27.442;153.014;2023-02-05T08:33:45;101304.41;;;27.12
64916;BMP280;51427;-27.442;153.014;2023-02-05T08:36:13;101310.81;;;27.08
64916;BMP280;51427;-27.442;153.014;2023-02-05T08:38:40;101311.13;;;27.05
64916;BMP280;51427;-27.442;153.014;2023-02-05T08:41:09;101320.47;;;27.06
64916;BMP280;51427;-27.442;153.014;2023-02-05T08:43:45;101316.88;;;26.99
64916;BMP280;51427;-27.442;153.014;2023-02-05T08:46:15;101327.13;;;26.91
64916;BMP280;51427;-27.442;153.014;2023-02-05T08:48:45;101339.03;;;26.92
64916;BMP280;51427;-27.442;153.014;2023-02-05T08:51:13;101333.22;;;26.90
64916;BMP280;51427;-27.442;153.014;2023-02-05T08:53:41;101330.25;;;26.78
64916;BMP280;51427;-27.442;153.014;2023-02-05T08:56:09;101334.72;;;26.76
64916;BMP280;51427;-27.442;153.014;2023-02-05T08:58:37;101327.03;;;26.76
64916;BMP280;51427;-27.442;153.014;2023-02-05T09:01:07;101332.47;;;26.73
64916;BMP280;51427;-27.442;153.014;2023-02-05T09:03:35;101335.97;;;26.72
64916;BMP280;51427;-27.442;153.014;2023-02-05T09:06:07;101340.63;;;26.68
64916;BMP280;51427;-27.442;153.014;2023-02-05T09:08:36;101346.38;;;26.62
64916;BMP280;51427;-27.442;153.014;2023-02-05T09:11:04;101339.78;;;26.60
64916;BMP280;51427;-27.442;153.014;2023-02-05T09:13:32;101354.22;;;26.61
64916;BMP280;51427;-27.442;153.014;2023-02-05T09:15:59;101352.59;;;26.52
64916;BMP280;51427;-27.442;153.014;2023-02-05T09:18:26;101342.59;;;26.49
64916;BMP280;51427;-27.442;153.014;2023-02-05T09:20:54;101347.13;;;26.55
64916;BMP280;51427;-27.442;153.014;2023-02-05T09:23:22;101351.41;;;26.46
64916;BMP280;51427;-27.442;153.014;2023-02-05T09:25:49;101347.06;;;26.47
64916;BMP280;51427;-27.442;153.014;2023-02-05T09:28:16;101354.41;;;26.42
64916;BMP280;51427;-27.442;153.014;2023-02-05T09:30:45;101354.72;;;26.39
64916;BMP280;51427;-27.442;153.014;2023-02-05T09:33:12;101362.88;;;26.35
64916;BMP280;51427;-27.442;153.014;2023-02-05T09:35:40;101357.09;;;26.33
64916;BMP280;51427;-27.442;153.014;2023-02-05T09:38:08;101357.22;;;26.31
64916;BMP280;51427;-27.442;153.014;2023-02-05T09:48:45;101361.72;;;26.29
64916;BMP280;51427;-27.442;153.014;2023-02-05T09:51:42;101364.84;;;26.23
64916;BMP280;51427;-27.442;153.014;2023-02-05T09:54:30;101362.66;;;26.11
64916;BMP280;51427;-27.442;153.014;2023-02-05T09:57:02;101367.06;;;26.18
64916;BMP280;51427;-27.442;153.014;2023-02-05T09:59:31;101376.97;;;26.13
64916;BMP280;51427;-27.442;153.014;2023-02-05T10:04:51;101389.63;;;26.15
64916;BMP280;51427;-27.442;153.014;2023-02-05T10:07:42;101394.78;;;26.15
64916;BMP280;51427;-27.442;153.014;2023-02-05T10:10:39;101402.09;;;26.10
64916;BMP280;51427;-27.442;153.014;2023-02-05T10:13:38;101401.44;;;26.08
64916;BMP280;51427;-27.442;153.014;2023-02-05T10:16:09;101395.13;;;26.02
64916;BMP280;51427;-27.442;153.014;2023-02-05T10:21:33;101395.78;;;26.04
64916;BMP280;51427;-27.442;153.014;2023-02-05T10:26:49;101407.75;;;25.96
64916;BMP280;51427;-27.442;153.014;2023-02-05T10:32:22;101412.06;;;25.96
64916;BMP280;51427;-27.442;153.014;2023-02-05T10:34:59;101415.59;;;25.95
64916;BMP280;51427;-27.442;153.014;2023-02-05T10:40:16;101423.94;;;25.97
64916;BMP280;51427;-27.442;153.014;2023-02-05T10:42:48;101420.25;;;25.99
64916;BMP280;51427;-27.442;153.014;2023-02-05T10:45:26;101420.50;;;26.05
64916;BMP280;51427;-27.442;153.014;2023-02-05T10:51:01;101428.34;;;25.87
64916;BMP280;51427;-27.442;153.014;2023-02-05T10:53:30;101423.28;;;25.95
64916;BMP280;51427;-27.442;153.014;2023-02-05T10:55:58;101424.00;;;25.87
64916;BMP280;51427;-27.442;153.014;2023-02-05T10:58:54;101424.00;;;25.87
64916;BMP280;51427;-27.442;153.014;2023-02-05T11:01:22;101429.84;;;25.80
64916;BMP280;51427;-27.442;153.014;2023-02-05T11:06:32;101428.91;;;25.81
64916;BMP280;51427;-27.442;153.014;2023-02-05T11:09:04;101425.81;;;25.77
64916;BMP280;51427;-27.442;153.014;2023-02-05T11:12:01;101433.34;;;25.79
64916;BMP280;51427;-27.442;153.014;2023-02-05T11:14:36;101434.84;;;25.81
64916;BMP280;51427;-27.442;153.014;2023-02-05T11:17:20;101432.63;;;25.86
64916;BMP280;51427;-27.442;153.014;2023-02-05T11:22:36;101439.16;;;25.81
64916;BMP280;51427;-27.442;153.014;2023-02-05T11:25:14;101437.97;;;25.75
64916;BMP280;51427;-27.442;153.014;2023-02-05T11:27:58;101431.63;;;25.79
64916;BMP280;51427;-27.442;153.014;2023-02-05T11:30:35;101439.75;;;25.75
64916;BMP280;51427;-27.442;153.014;2023-02-05T11:33:28;101439.00;;;25.65
64916;BMP280;51427;-27.442;153.014;2023-02-05T11:36:05;101434.91;;;25.62
64916;BMP280;51427;-27.442;153.014;2023-02-05T11:38:34;101439.66;;;25.67
64916;BMP280;51427;-27.442;153.014;2023-02-05T11:41:05;101441.66;;;25.73
64916;BMP280;51427;-27.442;153.014;2023-02-05T11:43:39;101445.72;;;25.66
64916;BMP280;51427;-27.442;153.014;2023-02-05T11:46:08;101446.38;;;25.58
64916;BMP280;51427;-27.442;153.014;2023-02-05T11:48:43;101454.63;;;25.62
64916;BMP280;51427;-27.442;153.014;2023-02-05T11:51:14;101456.78;;;25.57
64916;BMP280;51427;-27.442;153.014;2023-02-05T11:53:53;101454.91;;;25.59
64916;BMP280;51427;-27.442;153.014;2023-02-05T11:56:23;101459.22;;;25.58
64916;BMP280;51427;-27.442;153.014;2023-02-05T11:59:02;101457.94;;;25.45
64916;BMP280;51427;-27.442;153.014;2023-02-05T12:01:33;101450.97;;;25.38
64916;BMP280;51427;-27.442;153.014;2023-02-05T12:06:54;101457.94;;;25.45
64916;BMP280;51427;-27.442;153.014;2023-02-05T12:09:24;101447.97;;;25.42
64916;BMP280;51427;-27.442;153.014;2023-02-05T12:14:43;101445.69;;;25.39
64916;BMP280;51427;-27.442;153.014;2023-02-05T12:19:55;101448.53;;;25.36
64916;BMP280;51427;-27.442;153.014;2023-02-05T12:23:05;101451.09;;;25.36
64916;BMP280;51427;-27.442;153.014;2023-02-05T12:39:51;101436.75;;;25.16
64916;BMP280;51427;-27.442;153.014;2023-02-05T12:48:03;101450.28;;;25.09
64916;BMP280;51427;-27.442;153.014;2023-02-05T12:50:38;101439.56;;;25.13
64916;BMP280;51427;-27.442;153.014;2023-02-05T12:53:26;101448.09;;;25.14
64916;BMP280;51427;-27.442;153.014;2023-02-05T12:58:40;101444.06;;;25.02
64916;BMP280;51427;-27.442;153.014;2023-02-05T13:01:15;101440.03;;;25.00
64916;BMP280;51427;-27.442;153.014;2023-02-05T13:03:53;101442.84;;;24.97
64916;BMP280;51427;-27.442;153.014;2023-02-05T13:06:27;101439.22;;;24.90
64916;BMP280;51427;-27.442;153.014;2023-02-05T13:09:00;101440.19;;;24.98
64916;BMP280;51427;-27.442;153.014;2023-02-05T13:11:35;101438.84;;;24.85
64916;BMP280;51427;-27.442;153.014;2023-02-05T13:19:24;101439.38;;;24.98
64916;BMP280;51427;-27.442;153.014;2023-02-05T13:21:56;101431.94;;;24.95
64916;BMP280;51427;-27.442;153.014;2023-02-05T13:24:56;101430.09;;;24.87
64916;BMP280;51427;-27.442;153.014;2023-02-05T13:27:49;101423.06;;;24.89
64916;BMP280;51427;-27.442;153.014;2023-02-05T13:30:38;101411.19;;;24.88
64916;BMP280;51427;-27.442;153.014;2023-02-05T13:33:07;101416.59;;;24.85
64916;BMP280;51427;-27.442;153.014;2023-02-05T13:38:59;101416.44;;;24.87
64916;BMP280;51427;-27.442;153.014;2023-02-05T14:00:42;101417.03;;;24.62
64916;BMP280;51427;-27.442;153.014;2023-02-05T14:03:26;101404.53;;;24.59
64916;BMP280;51427;-27.442;153.014;2023-02-05T14:05:56;101403.19;;;24.55
64916;BMP280;51427;-27.442;153.014;2023-02-05T14:08:26;101404.53;;;24.59
64916;BMP280;51427;-27.442;153.014;2023-02-05T14:11:03;101401.56;;;24.54
64916;BMP280;51427;-27.442;153.014;2023-02-05T14:13:32;101393.75;;;24.56
64916;BMP280;51427;-27.442;153.014;2023-02-05T14:23:59;101386.88;;;24.56
64916;BMP280;51427;-27.442;153.014;2023-02-05T14:26:44;101394.72;;;24.45
64916;BMP280;51427;-27.442;153.014;2023-02-05T14:32:08;101382.59;;;24.47
64916;BMP280;51427;-27.442;153.014;2023-02-05T14:37:03;101381.22;;;24.53
64916;BMP280;51427;-27.442;153.014;2023-02-05T14:39:33;101373.69;;;24.51
64916;BMP280;51427;-27.442;153.014;2023-02-05T14:42:04;101377.63;;;24.46
64916;BMP280;51427;-27.442;153.014;2023-02-05T14:44:35;101371.97;;;24.42
64916;BMP280;51427;-27.442;153.014;2023-02-05T14:47:39;101363.09;;;24.37
64916;BMP280;51427;-27.442;153.014;2023-02-05T14:50:19;101355.94;;;24.40
64916;BMP280;51427;-27.442;153.014;2023-02-05T14:52:57;101355.94;;;24.40
64916;BMP280;51427;-27.442;153.014;2023-02-05T14:55:27;101352.16;;;24.44
64916;BMP280;51427;-27.442;153.014;2023-02-05T14:58:03;101354.72;;;24.44
64916;BMP280;51427;-27.442;153.014;2023-02-05T15:00:37;101359.59;;;24.38
64916;BMP280;51427;-27.442;153.014;2023-02-05T15:03:23;101351.22;;;24.45
64916;BMP280;51427;-27.442;153.014;2023-02-05T15:06:06;101357.44;;;24.43
64916;BMP280;51427;-27.442;153.014;2023-02-05T15:24:55;101350.84;;;23.84
64916;BMP280;51427;-27.442;153.014;2023-02-05T15:27:41;101348.28;;;23.84
64916;BMP280;51427;-27.442;153.014;2023-02-05T15:30:17;101344.78;;;23.85
64916;BMP280;51427;-27.442;153.014;2023-02-05T15:35:28;101350.56;;;23.77
64916;BMP280;51427;-27.442;153.014;2023-02-05T15:38:18;101349.22;;;23.83
64916;BMP280;51427;-27.442;153.014;2023-02-05T15:40:47;101349.63;;;23.88
64916;BMP280;51427;-27.442;153.014;2023-02-05T15:43:24;101355.28;;;23.82
64916;BMP280;51427;-27.442;153.014;2023-02-05T15:46:12;101349.34;;;23.72
64916;BMP280;51427;-27.442;153.014;2023-02-05T15:48:40;101350.03;;;23.74
64916;BMP280;51427;-27.442;153.014;2023-02-05T15:53:49;101350.44;;;23.79
64916;BMP280;51427;-27.442;153.014;2023-02-05T15:56:30;101348.13;;;23.76
64916;BMP280;51427;-27.442;153.014;2023-02-05T16:01:31;101345.19;;;23.71
64916;BMP280;51427;-27.442;153.014;2023-02-05T16:03:59;101351.09;;;23.71
64916;BMP280;51427;-27.442;153.014;2023-02-05T16:06:28;101345.59;;;23.76
64916;BMP280;51427;-27.442;153.014;2023-02-05T16:08:56;101340.88;;;23.71
64916;BMP280;51427;-27.442;153.014;2023-02-05T16:11:31;101332.13;;;23.65
64916;BMP280;51427;-27.442;153.014;2023-02-05T16:14:09;101342.91;;;23.77
64916;BMP280;51427;-27.442;153.014;2023-02-05T16:25:46;101332.25;;;23.63
64916;BMP280;51427;-27.442;153.014;2023-02-05T16:28:21;101336.63;;;23.52
64916;BMP280;51427;-27.442;153.014;2023-02-05T16:30:53;101336.63;;;23.42
64916;BMP280;51427;-27.442;153.014;2023-02-05T16:33:30;101318.22;;;23.58
64916;BMP280;51427;-27.442;153.014;2023-02-05T16:36:02;101324.75;;;23.71
64916;BMP280;51427;-27.442;153.014;2023-02-05T16:38:30;101327.78;;;23.46
64916;BMP280;51427;-27.442;153.014;2023-02-05T16:41:21;101329.38;;;23.57
64916;BMP280;51427;-27.442;153.014;2023-02-05T16:43:50;101328.31;;;23.59
64916;BMP280;51427;-27.442;153.014;2023-02-05T16:46:29;101334.88;;;23.43
64916;BMP280;51427;-27.442;153.014;2023-02-05T16:49:07;101336.75;;;23.41
64916;BMP280;51427;-27.442;153.014;2023-02-05T16:57:00;101337.53;;;23.22
64916;BMP280;51427;-27.442;153.014;2023-02-05T16:59:34;101342.06;;;23.19
64916;BMP280;51427;-27.442;153.014;2023-02-05T17:02:05;101343.16;;;23.17
64916;BMP280;51427;-27.442;153.014;2023-02-05T17:04:41;101343.28;;;23.15
64916;BMP280;51427;-27.442;153.014;2023-02-05T17:07:20;101341.63;;;23.05
64916;BMP280;51427;-27.442;153.014;2023-02-05T17:09:48;101343.78;;;23.09
64916;BMP280;51427;-27.442;153.014;2023-02-05T17:12:23;101344.06;;;23.16
64916;BMP280;51427;-27.442;153.014;2023-02-05T17:14:59;101345.63;;;22.98
64916;BMP280;51427;-27.442;153.014;2023-02-05T17:17:29;101349.13;;;22.97
64916;BMP280;51427;-27.442;153.014;2023-02-05T17:26:02;101344.34;;;23.13
64916;BMP280;51427;-27.442;153.014;2023-02-05T17:28:29;101344.56;;;23.00
64916;BMP280;51427;-27.442;153.014;2023-02-05T17:30:58;101337.06;;;23.08
64916;BMP280;51427;-27.442;153.014;2023-02-05T17:33:27;101339.69;;;22.97
64916;BMP280;51427;-27.442;153.014;2023-02-05T17:35:55;101340.78;;;22.95
64916;BMP280;51427;-27.442;153.014;2023-02-05T17:38:22;101337.28;;;22.96
64916;BMP280;51427;-27.442;153.014;2023-02-05T17:40:50;101329.31;;;22.89
64916;BMP280;51427;-27.442;153.014;2023-02-05T17:43:36;101330.31;;;22.98
64916;BMP280;51427;-27.442;153.014;2023-02-05T17:46:12;101331.66;;;23.02
64916;BMP280;51427;-27.442;153.014;2023-02-05T17:48:40;101339.38;;;22.91
64916;BMP280;51427;-27.442;153.014;2023-02-05T17:51:16;101349.13;;;22.97
64916;BMP280;51427;-27.442;153.014;2023-02-05T17:53:43;101347.75;;;22.93
64916;BMP280;51427;-27.442;153.014;2023-02-05T17:56:11;101342.31;;;22.86
64916;BMP280;51427;-27.442;153.014;2023-02-05T17:58:39;101339.28;;;22.92
64916;BMP280;51427;-27.442;153.014;2023-02-05T18:01:07;101340.41;;;22.79
64916;BMP280;51427;-27.442;153.014;2023-02-05T18:03:37;101344.06;;;22.86
64916;BMP280;51427;-27.442;153.014;2023-02-05T18:06:05;101347.13;;;22.80
64916;BMP280;51427;-27.442;153.014;2023-02-05T18:08:32;101346.88;;;22.83
64916;BMP280;51427;-27.442;153.014;2023-02-05T18:11:03;101357.56;;;22.77
64916;BMP280;51427;-27.442;153.014;2023-02-05T18:13:30;101358.00;;;22.82
64916;BMP280;51427;-27.442;153.014;2023-02-05T18:15:57;101355.94;;;22.67
64916;BMP280;51427;-27.442;153.014;2023-02-05T18:18:33;101362.13;;;22.73
64916;BMP280;51427;-27.442;153.014;2023-02-05T18:21:01;101358.00;;;22.82
64916;BMP280;51427;-27.442;153.014;2023-02-05T18:23:28;101360.38;;;22.74
64916;BMP280;51427;-27.442;153.014;2023-02-05T18:25:59;101372.59;;;22.71
64916;BMP280;51427;-27.442;153.014;2023-02-05T18:28:27;101365.06;;;22.69
64916;BMP280;51427;-27.442;153.014;2023-02-05T18:30:57;101383.59;;;22.71
64916;BMP280;51427;-27.442;153.014;2023-02-05T18:33:24;101385.34;;;22.50
64916;BMP280;51427;-27.442;153.014;2023-02-05T18:35:51;101391.13;;;22.73
64916;BMP280;51427;-27.442;153.014;2023-02-05T18:38:19;101391.06;;;22.63
64916;BMP280;51427;-27.442;153.014;2023-02-05T18:40:47;101390.31;;;22.72
64916;BMP280;51427;-27.442;153.014;2023-02-05T18:43:14;101402.16;;;22.73
64916;BMP280;51427;-27.442;153.014;2023-02-05T18:45:41;101407.56;;;22.59
64916;BMP280;51427;-27.442;153.014;2023-02-05T18:48:08;101414.25;;;22.40
64916;BMP280;51427;-27.442;153.014;2023-02-05T18:50:36;101418.47;;;22.61
64916;BMP280;51427;-27.442;153.014;2023-02-05T18:53:03;101420.50;;;22.67
64916;BMP280;51427;-27.442;153.014;2023-02-05T18:55:30;101418.28;;;22.53
64916;BMP280;51427;-27.442;153.014;2023-02-05T18:58:01;101428.03;;;22.48
64916;BMP280;51427;-27.442;153.014;2023-02-05T19:00:29;101436.13;;;22.53